Talladega, Alabama
Current Conditions -  °F | °C
As of 7:55 PM on Saturday 25 Oct 2014 (Local Time) from KASN Reporting Station
Clear Clear  
Wind Chill: 17°   Ceiling: Unl
Heat Index: 17°   Visibility: 10mi
Dew Point: 14°   Wind: 3mph
Humidity: 84%   Direction: 170°S
Pressure: 30.05"   Gusts: NA
Location:  33.43°N, 86.1°W
Report Text: KASN 260055Z AUTO 17003KT 10SM CLR 17/14 A3005 RMK AO2 T01690141
Loading
Personal Weather Stations






























Interactive Weather Map New forecast layout! Learn more

10-Day Weather Forecast

Advertisements
Track Severe Weather on mobile